QTR265 OTHH-LCLK
Flight info
| Callsign | QTR265 |
|---|---|
| Flight time | 2h 49m |
| Altitude | 38000 |
| Route | DEMBO4 ULIKA M430 KSA T503 PAXAN/N0493F400 T503 OVANO L768 FIRAS R655 KTN/N0418F260 R655 LEBOR UR655 BALMA DCT KOBER DCT |
| Aircraft | A388/J-SADE2E3FGHIJ3J4J5M1RWXY/LB1D1 |
Departure
| Time | 2026-05-04 00:41 |
|---|---|
| Airport | Hamad International Airport (OTHH) |
Arrival
| Time | 2026-05-04 03:31 |
|---|---|
| Airport | Larnaca International Airport (LCLK) |
| Time | Latitude | Longitude | Altitude | Speed | Heading |
|---|---|---|---|---|---|
| 2026-05-04 00:07 | 25.27005 | 51.60872 | 35 ft | 0 kts | 158° |
| 2026-05-04 00:25 | 25.27012 | 51.60870 | 35 ft | 4 kts | 158° |
| 2026-05-04 00:25 | 25.27037 | 51.60858 | 35 ft | 4 kts | 158° |
| 2026-05-04 00:25 | 25.27060 | 51.60848 | 35 ft | 1 kts | 158° |
| 2026-05-04 00:26 | 25.27080 | 51.60837 | 35 ft | 4 kts | 140° |
| 2026-05-04 00:26 | 25.27091 | 51.60821 | 35 ft | 4 kts | 101° |
| 2026-05-04 00:26 | 25.27088 | 51.60803 | 35 ft | 4 kts | 68° |
| 2026-05-04 00:26 | 25.27078 | 51.60775 | 35 ft | 4 kts | 68° |
| 2026-05-04 00:27 | 25.27075 | 51.60767 | 35 ft | 0 kts | 68° |
| 2026-05-04 00:32 | 25.27076 | 51.60768 | 35 ft | 1 kts | 68° |
| 2026-05-04 00:32 | 25.27087 | 51.60799 | 35 ft | 7 kts | 68° |
| 2026-05-04 00:32 | 25.27112 | 51.60869 | 35 ft | 12 kts | 68° |
| 2026-05-04 00:32 | 25.27149 | 51.60969 | 35 ft | 16 kts | 68° |
| 2026-05-04 00:33 | 25.27184 | 51.61065 | 35 ft | 10 kts | 68° |
| 2026-05-04 00:33 | 25.27249 | 51.61112 | 35 ft | 11 kts | 337° |
| 2026-05-04 00:33 | 25.27313 | 51.61080 | 35 ft | 8 kts | 351° |
| 2026-05-04 00:34 | 25.27373 | 51.61098 | 35 ft | 11 kts | 40° |
| 2026-05-04 00:34 | 25.27413 | 51.61179 | 35 ft | 14 kts | 70° |
| 2026-05-04 00:34 | 25.27453 | 51.61291 | 35 ft | 17 kts | 68° |
| 2026-05-04 00:34 | 25.27484 | 51.61376 | 35 ft | 19 kts | 69° |
| 2026-05-04 00:35 | 25.27522 | 51.61482 | 34 ft | 10 kts | 68° |
| 2026-05-04 00:35 | 25.27539 | 51.61532 | 34 ft | 6 kts | 69° |
| 2026-05-04 00:35 | 25.27537 | 51.61591 | 33 ft | 9 kts | 124° |
| 2026-05-04 00:35 | 25.27452 | 51.61640 | 34 ft | 13 kts | 160° |
| 2026-05-04 00:36 | 25.27392 | 51.61663 | 34 ft | 14 kts | 160° |
| 2026-05-04 00:36 | 25.27256 | 51.61723 | 33 ft | 17 kts | 158° |
| 2026-05-04 00:36 | 25.27177 | 51.61759 | 33 ft | 19 kts | 159° |
| 2026-05-04 00:36 | 25.27052 | 51.61812 | 33 ft | 20 kts | 159° |
| 2026-05-04 00:37 | 25.26919 | 51.61868 | 33 ft | 21 kts | 159° |
| 2026-05-04 00:37 | 25.26780 | 51.61927 | 33 ft | 22 kts | 158° |
| 2026-05-04 00:37 | 25.26642 | 51.61989 | 33 ft | 22 kts | 155° |
| 2026-05-04 00:37 | 25.26501 | 51.62053 | 33 ft | 22 kts | 158° |
| 2026-05-04 00:38 | 25.26359 | 51.62116 | 34 ft | 22 kts | 158° |
| 2026-05-04 00:38 | 25.26215 | 51.62180 | 34 ft | 22 kts | 158° |
| 2026-05-04 00:38 | 25.26070 | 51.62244 | 35 ft | 23 kts | 158° |
| 2026-05-04 00:38 | 25.25922 | 51.62310 | 34 ft | 23 kts | 158° |
| 2026-05-04 00:39 | 25.25773 | 51.62376 | 34 ft | 23 kts | 158° |
| 2026-05-04 00:39 | 25.25623 | 51.62443 | 33 ft | 16 kts | 158° |
| 2026-05-04 00:39 | 25.25542 | 51.62478 | 33 ft | 11 kts | 147° |
| 2026-05-04 00:39 | 25.25516 | 51.62548 | 33 ft | 11 kts | 74° |
| 2026-05-04 00:40 | 25.25551 | 51.62633 | 32 ft | 10 kts | 40° |
| 2026-05-04 00:40 | 25.25624 | 51.62645 | 32 ft | 10 kts | 338° |
| 2026-05-04 00:40 | 25.25628 | 51.62643 | 32 ft | 0 kts | 338° |
| 2026-05-04 00:40 | 25.25697 | 51.62612 | 31 ft | 44 kts | 338° |
| 2026-05-04 00:41 | 25.26239 | 51.62370 | 33 ft | 120 kts | 339° |
| 2026-05-04 00:41 | 25.27189 | 51.61955 | 32 ft | 169 kts | 338° |
| 2026-05-04 00:41 | 25.28337 | 51.61453 | 308 ft | 179 kts | 337° |
| 2026-05-04 00:41 | 25.29506 | 51.60951 | 764 ft | 181 kts | 339° |
| 2026-05-04 00:42 | 25.30687 | 51.60465 | 1256 ft | 181 kts | 338° |
| 2026-05-04 00:42 | 25.31860 | 51.59969 | 1796 ft | 179 kts | 338° |
| 2026-05-04 00:42 | 25.33052 | 51.59450 | 2076 ft | 192 kts | 337° |
| 2026-05-04 00:42 | 25.34381 | 51.58977 | 2313 ft | 214 kts | 346° |
| 2026-05-04 00:43 | 25.35927 | 51.58687 | 2742 ft | 235 kts | 353° |
| 2026-05-04 00:43 | 25.37638 | 51.58731 | 3199 ft | 258 kts | 12° |
| 2026-05-04 00:43 | 25.39398 | 51.59374 | 3769 ft | 275 kts | 21° |
| 2026-05-04 00:43 | 25.41151 | 51.60241 | 4366 ft | 279 kts | 26° |
| 2026-05-04 00:44 | 25.42893 | 51.61187 | 5312 ft | 277 kts | 25° |
| 2026-05-04 00:44 | 25.44654 | 51.62077 | 6165 ft | 280 kts | 24° |
| 2026-05-04 00:44 | 25.46451 | 51.62958 | 6943 ft | 284 kts | 21° |
| 2026-05-04 00:44 | 25.48358 | 51.63574 | 7697 ft | 288 kts | 11° |
| 2026-05-04 00:45 | 25.50333 | 51.64013 | 8414 ft | 292 kts | 11° |
| 2026-05-04 00:45 | 25.52331 | 51.64484 | 9119 ft | 295 kts | 12° |
| 2026-05-04 00:45 | 25.54347 | 51.64973 | 9801 ft | 299 kts | 12° |
| 2026-05-04 00:45 | 25.56366 | 51.65465 | 10437 ft | 303 kts | 12° |
| 2026-05-04 00:46 | 25.58492 | 51.65982 | 10654 ft | 322 kts | 12° |
| 2026-05-04 00:46 | 25.60794 | 51.66322 | 10815 ft | 339 kts | 357° |
| 2026-05-04 00:46 | 25.63102 | 51.65737 | 11030 ft | 353 kts | 335° |
| 2026-05-04 00:46 | 25.65115 | 51.64185 | 11560 ft | 356 kts | 313° |
| 2026-05-04 00:47 | 25.66504 | 51.61912 | 12123 ft | 359 kts | 292° |
| 2026-05-04 00:47 | 25.67079 | 51.59231 | 12670 ft | 361 kts | 273° |
| 2026-05-04 00:47 | 25.66819 | 51.56469 | 13190 ft | 364 kts | 253° |
| 2026-05-04 00:47 | 25.65732 | 51.53929 | 13714 ft | 367 kts | 236° |
| 2026-05-04 00:48 | 25.64254 | 51.51607 | 14191 ft | 371 kts | 233° |
| 2026-05-04 00:48 | 25.62721 | 51.49293 | 14680 ft | 374 kts | 233° |
| 2026-05-04 00:48 | 25.61189 | 51.46953 | 15157 ft | 377 kts | 234° |
| 2026-05-04 00:48 | 25.59661 | 51.44581 | 15619 ft | 380 kts | 234° |
| 2026-05-04 00:49 | 25.58132 | 51.42179 | 16068 ft | 383 kts | 235° |
| 2026-05-04 00:49 | 25.56600 | 51.39759 | 16499 ft | 386 kts | 235° |
| 2026-05-04 00:49 | 25.55052 | 51.37311 | 16924 ft | 389 kts | 235° |
| 2026-05-04 00:49 | 25.53493 | 51.34845 | 17337 ft | 392 kts | 235° |
| 2026-05-04 00:50 | 25.51924 | 51.32366 | 17746 ft | 393 kts | 234° |
| 2026-05-04 00:50 | 25.50316 | 51.29928 | 18309 ft | 388 kts | 233° |
| 2026-05-04 00:50 | 25.48503 | 51.27705 | 18605 ft | 394 kts | 219° |
| 2026-05-04 00:50 | 25.46159 | 51.26088 | 18772 ft | 402 kts | 203° |
| 2026-05-04 00:51 | 25.43460 | 51.25257 | 19107 ft | 405 kts | 187° |
| 2026-05-04 00:51 | 25.40635 | 51.25174 | 19429 ft | 408 kts | 179° |
| 2026-05-04 00:51 | 25.37794 | 51.25266 | 19727 ft | 410 kts | 178° |
| 2026-05-04 00:51 | 25.34928 | 51.25355 | 20029 ft | 412 kts | 179° |
| 2026-05-04 00:52 | 25.32057 | 51.25422 | 20316 ft | 415 kts | 179° |
| 2026-05-04 00:52 | 25.29162 | 51.25550 | 20584 ft | 417 kts | 174° |
| 2026-05-04 00:52 | 25.26294 | 51.26059 | 20859 ft | 419 kts | 167° |
| 2026-05-04 00:52 | 25.23488 | 51.26964 | 21118 ft | 421 kts | 160° |
| 2026-05-04 00:53 | 25.20761 | 51.28138 | 21357 ft | 423 kts | 159° |
| 2026-05-04 00:53 | 25.17946 | 51.29136 | 21584 ft | 425 kts | 169° |
| 2026-05-04 00:53 | 25.15014 | 51.29386 | 21831 ft | 426 kts | 183° |
| 2026-05-04 00:53 | 25.12085 | 51.28845 | 22058 ft | 427 kts | 197° |
| 2026-05-04 00:54 | 25.09365 | 51.27550 | 22278 ft | 429 kts | 211° |
| 2026-05-04 00:54 | 25.06976 | 51.25559 | 22492 ft | 430 kts | 224° |
| 2026-05-04 00:54 | 25.05082 | 51.23008 | 22698 ft | 432 kts | 238° |
| 2026-05-04 00:54 | 25.03770 | 51.20020 | 22896 ft | 434 kts | 251° |
| 2026-05-04 00:55 | 25.02976 | 51.16806 | 23074 ft | 436 kts | 256° |
| 2026-05-04 00:55 | 25.02362 | 51.13530 | 23246 ft | 437 kts | 262° |
| 2026-05-04 00:55 | 25.02091 | 51.10194 | 23428 ft | 439 kts | 268° |
| 2026-05-04 00:55 | 25.02095 | 51.06820 | 23590 ft | 440 kts | 270° |
| 2026-05-04 00:56 | 25.02096 | 51.03495 | 23752 ft | 441 kts | 269° |
| 2026-05-04 00:56 | 25.02076 | 51.00101 | 23911 ft | 443 kts | 269° |
| 2026-05-04 00:56 | 25.02049 | 50.96704 | 24064 ft | 444 kts | 270° |
| 2026-05-04 00:56 | 25.02339 | 50.93313 | 24201 ft | 446 kts | 282° |
| 2026-05-04 00:57 | 25.03291 | 50.90065 | 24354 ft | 447 kts | 294° |
| 2026-05-04 00:57 | 25.04866 | 50.87100 | 24492 ft | 449 kts | 307° |
| 2026-05-04 00:57 | 25.06973 | 50.84561 | 24632 ft | 450 kts | 316° |
| 2026-05-04 00:57 | 25.09287 | 50.82220 | 24748 ft | 452 kts | 317° |
| 2026-05-04 00:58 | 25.11611 | 50.79887 | 24877 ft | 453 kts | 317° |
| 2026-05-04 00:58 | 25.13929 | 50.77529 | 24998 ft | 454 kts | 316° |
| 2026-05-04 00:58 | 25.16240 | 50.75148 | 25116 ft | 455 kts | 316° |
| 2026-05-04 00:58 | 25.16911 | 50.74452 | 25149 ft | 455 kts | 316° |
| 2026-05-04 00:59 | 25.18660 | 50.72632 | 25235 ft | 456 kts | 316° |
| 2026-05-04 00:59 | 25.20967 | 50.70226 | 25346 ft | 457 kts | 316° |
| 2026-05-04 00:59 | 25.23147 | 50.67677 | 25440 ft | 457 kts | 307° |
| 2026-05-04 00:59 | 25.24816 | 50.64692 | 25556 ft | 457 kts | 295° |
| 2026-05-04 01:00 | 25.25876 | 50.61387 | 25665 ft | 458 kts | 282° |
| 2026-05-04 01:00 | 25.26283 | 50.57904 | 25770 ft | 458 kts | 270° |
| 2026-05-04 01:00 | 25.26213 | 50.54387 | 25853 ft | 459 kts | 268° |
| 2026-05-04 01:00 | 25.26107 | 50.50860 | 25947 ft | 460 kts | 268° |
| 2026-05-04 01:01 | 25.26081 | 50.47336 | 26039 ft | 461 kts | 270° |
| 2026-05-04 01:01 | 25.26155 | 50.43796 | 26132 ft | 461 kts | 271° |
| 2026-05-04 01:01 | 25.26253 | 50.40239 | 26224 ft | 462 kts | 271° |
| 2026-05-04 01:01 | 25.26346 | 50.36686 | 26301 ft | 463 kts | 271° |
| 2026-05-04 01:02 | 25.26430 | 50.33126 | 26381 ft | 464 kts | 271° |
| 2026-05-04 01:02 | 25.26506 | 50.29561 | 26475 ft | 464 kts | 271° |
| 2026-05-04 01:02 | 25.26579 | 50.25996 | 26554 ft | 465 kts | 271° |
| 2026-05-04 01:02 | 25.26649 | 50.22421 | 26633 ft | 466 kts | 271° |
| 2026-05-04 01:03 | 25.26719 | 50.18848 | 26712 ft | 466 kts | 271° |
| 2026-05-04 01:03 | 25.26787 | 50.15254 | 26789 ft | 467 kts | 271° |
| 2026-05-04 01:03 | 25.26855 | 50.11665 | 26857 ft | 468 kts | 271° |
| 2026-05-04 01:03 | 25.26922 | 50.08081 | 26970 ft | 467 kts | 271° |
| 2026-05-04 01:04 | 25.26989 | 50.04498 | 27213 ft | 464 kts | 271° |
| 2026-05-04 01:04 | 25.27053 | 50.00946 | 27462 ft | 460 kts | 271° |
| 2026-05-04 01:04 | 25.27117 | 49.97427 | 27711 ft | 457 kts | 271° |
| 2026-05-04 01:04 | 25.27179 | 49.93932 | 27959 ft | 454 kts | 271° |
| 2026-05-04 01:05 | 25.27240 | 49.90454 | 28208 ft | 450 kts | 271° |
| 2026-05-04 01:05 | 25.27300 | 49.87011 | 28457 ft | 447 kts | 271° |
| 2026-05-04 01:05 | 25.27358 | 49.83592 | 28705 ft | 444 kts | 271° |
| 2026-05-04 01:05 | 25.27415 | 49.80198 | 28954 ft | 441 kts | 271° |
| 2026-05-04 01:06 | 25.27471 | 49.76818 | 29203 ft | 438 kts | 271° |
| 2026-05-04 01:06 | 25.27526 | 49.73460 | 29451 ft | 435 kts | 271° |
| 2026-05-04 01:06 | 25.27580 | 49.70126 | 29700 ft | 433 kts | 271° |
| 2026-05-04 01:06 | 25.27633 | 49.66813 | 29949 ft | 430 kts | 271° |
| 2026-05-04 01:07 | 25.27684 | 49.63525 | 30197 ft | 428 kts | 271° |
| 2026-05-04 01:07 | 25.27735 | 49.60246 | 30446 ft | 425 kts | 270° |
| 2026-05-04 01:07 | 25.27785 | 49.56991 | 30694 ft | 423 kts | 270° |
| 2026-05-04 01:07 | 25.27834 | 49.53756 | 30943 ft | 420 kts | 270° |
| 2026-05-04 01:08 | 25.27875 | 49.50540 | 31190 ft | 418 kts | 269° |
| 2026-05-04 01:08 | 25.27789 | 49.47347 | 31438 ft | 415 kts | 266° |
| 2026-05-04 01:08 | 25.27538 | 49.44186 | 31686 ft | 413 kts | 263° |
| 2026-05-04 01:08 | 25.27239 | 49.41027 | 31936 ft | 410 kts | 264° |
| 2026-05-04 01:09 | 25.26955 | 49.37887 | 32048 ft | 412 kts | 264° |
| 2026-05-04 01:09 | 25.26385 | 49.31544 | 32115 ft | 418 kts | 264° |
| 2026-05-04 01:10 | 25.25800 | 49.25110 | 32181 ft | 423 kts | 264° |
| 2026-05-04 01:10 | 25.25244 | 49.19042 | 32236 ft | 428 kts | 264° |
| 2026-05-04 01:11 | 25.24642 | 49.12502 | 32235 ft | 433 kts | 264° |
| 2026-05-04 01:11 | 25.24027 | 49.05850 | 32297 ft | 437 kts | 264° |
| 2026-05-04 01:12 | 25.23405 | 48.99155 | 32357 ft | 440 kts | 264° |
| 2026-05-04 01:12 | 25.22774 | 48.92407 | 32418 ft | 443 kts | 264° |
| 2026-05-04 01:13 | 25.22138 | 48.85622 | 32479 ft | 445 kts | 264° |
| 2026-05-04 01:13 | 25.21498 | 48.78835 | 32768 ft | 441 kts | 264° |
| 2026-05-04 01:13 | 25.21180 | 48.75475 | 32944 ft | 439 kts | 264° |
| 2026-05-04 01:14 | 25.20861 | 48.72118 | 32994 ft | 440 kts | 264° |
| 2026-05-04 01:14 | 25.20219 | 48.65379 | 33000 ft | 444 kts | 264° |
| 2026-05-04 01:15 | 25.19568 | 48.58577 | 33000 ft | 447 kts | 264° |
| 2026-05-04 01:15 | 25.18909 | 48.51732 | 33000 ft | 450 kts | 264° |
| 2026-05-04 01:16 | 25.18243 | 48.44838 | 32994 ft | 453 kts | 264° |
| 2026-05-04 01:16 | 25.17908 | 48.41386 | 32879 ft | 451 kts | 263° |
| 2026-05-04 01:16 | 25.17573 | 48.37942 | 32335 ft | 452 kts | 263° |
| 2026-05-04 01:16 | 25.17235 | 48.34472 | 31509 ft | 457 kts | 263° |
| 2026-05-04 01:17 | 25.16892 | 48.30960 | 30637 ft | 465 kts | 263° |
| 2026-05-04 01:17 | 25.16539 | 48.27365 | 30212 ft | 476 kts | 263° |
| 2026-05-04 01:17 | 25.16180 | 48.23709 | 30038 ft | 482 kts | 263° |
| 2026-05-04 01:18 | 25.15453 | 48.16337 | 30000 ft | 484 kts | 263° |
| 2026-05-04 01:18 | 25.14720 | 48.08944 | 30000 ft | 485 kts | 263° |
| 2026-05-04 01:19 | 25.13980 | 48.01534 | 30000 ft | 486 kts | 263° |
| 2026-05-04 01:19 | 25.13236 | 47.94114 | 30000 ft | 487 kts | 263° |
| 2026-05-04 01:20 | 25.12486 | 47.86676 | 30000 ft | 488 kts | 263° |
| 2026-05-04 01:20 | 25.11708 | 47.79232 | 30000 ft | 489 kts | 262° |
| 2026-05-04 01:21 | 25.10815 | 47.71801 | 30000 ft | 489 kts | 262° |
| 2026-05-04 01:21 | 25.10070 | 47.65615 | 30000 ft | 490 kts | 262° |
| 2026-05-04 01:22 | 25.09181 | 47.58162 | 30000 ft | 490 kts | 262° |
| 2026-05-04 01:22 | 25.08292 | 47.50705 | 30000 ft | 491 kts | 262° |
| 2026-05-04 01:23 | 25.07398 | 47.43237 | 30000 ft | 491 kts | 262° |
| 2026-05-04 01:23 | 25.06500 | 47.35774 | 30000 ft | 491 kts | 262° |
| 2026-05-04 01:24 | 25.05598 | 47.28307 | 30000 ft | 492 kts | 262° |
| 2026-05-04 01:24 | 25.04690 | 47.20830 | 30000 ft | 492 kts | 262° |
| 2026-05-04 01:25 | 25.03779 | 47.13353 | 30000 ft | 492 kts | 262° |
| 2026-05-04 01:25 | 25.02870 | 47.05931 | 30000 ft | 492 kts | 262° |
| 2026-05-04 01:26 | 25.01944 | 46.98397 | 30000 ft | 492 kts | 262° |
| 2026-05-04 01:26 | 25.01022 | 46.90921 | 30000 ft | 492 kts | 262° |
| 2026-05-04 01:27 | 25.00095 | 46.83442 | 30000 ft | 493 kts | 262° |
| 2026-05-04 01:27 | 24.99584 | 46.75925 | 30001 ft | 493 kts | 273° |
| 2026-05-04 01:28 | 25.00879 | 46.68525 | 30000 ft | 494 kts | 289° |
| 2026-05-04 01:28 | 25.03953 | 46.61772 | 30000 ft | 495 kts | 304° |
| 2026-05-04 01:29 | 25.08516 | 46.56182 | 30002 ft | 495 kts | 317° |
| 2026-05-04 01:29 | 25.13583 | 46.51038 | 30000 ft | 495 kts | 317° |
| 2026-05-04 01:30 | 25.18634 | 46.45863 | 30000 ft | 495 kts | 317° |
| 2026-05-04 01:30 | 25.23682 | 46.40689 | 30000 ft | 495 kts | 317° |
| 2026-05-04 01:31 | 25.28731 | 46.35510 | 30000 ft | 495 kts | 317° |
| 2026-05-04 01:31 | 25.33776 | 46.30330 | 30000 ft | 495 kts | 316° |
| 2026-05-04 01:32 | 25.38827 | 46.25138 | 30000 ft | 495 kts | 316° |
| 2026-05-04 01:32 | 25.43868 | 46.19950 | 30000 ft | 495 kts | 316° |
| 2026-05-04 01:33 | 25.48912 | 46.14752 | 30000 ft | 495 kts | 316° |
| 2026-05-04 01:33 | 25.53955 | 46.09549 | 30000 ft | 495 kts | 316° |
| 2026-05-04 01:34 | 25.58995 | 46.04343 | 30000 ft | 495 kts | 316° |
| 2026-05-04 01:34 | 25.64032 | 45.99135 | 30000 ft | 495 kts | 316° |
| 2026-05-04 01:35 | 25.69069 | 45.93918 | 30000 ft | 495 kts | 316° |
| 2026-05-04 01:35 | 25.74107 | 45.88695 | 30000 ft | 495 kts | 316° |
| 2026-05-04 01:36 | 25.79139 | 45.83471 | 30000 ft | 495 kts | 316° |
| 2026-05-04 01:36 | 25.84134 | 45.78280 | 30000 ft | 496 kts | 316° |
| 2026-05-04 01:37 | 25.89201 | 45.73008 | 30000 ft | 496 kts | 316° |
| 2026-05-04 01:37 | 25.94226 | 45.67770 | 30000 ft | 496 kts | 316° |
| 2026-05-04 01:38 | 25.99253 | 45.62525 | 30000 ft | 496 kts | 316° |
| 2026-05-04 01:38 | 26.04241 | 45.57313 | 30000 ft | 496 kts | 316° |
| 2026-05-04 01:39 | 26.09264 | 45.52060 | 30000 ft | 496 kts | 316° |
| 2026-05-04 01:39 | 26.14283 | 45.46803 | 30000 ft | 496 kts | 316° |
| 2026-05-04 01:40 | 26.19301 | 45.41541 | 30000 ft | 496 kts | 316° |
| 2026-05-04 01:40 | 26.24320 | 45.36275 | 30000 ft | 496 kts | 316° |
| 2026-05-04 01:41 | 26.29334 | 45.31006 | 30000 ft | 496 kts | 316° |
| 2026-05-04 01:41 | 26.34352 | 45.25738 | 30000 ft | 496 kts | 316° |
| 2026-05-04 01:42 | 26.39376 | 45.20472 | 30000 ft | 496 kts | 316° |
| 2026-05-04 01:42 | 26.44396 | 45.15201 | 30000 ft | 496 kts | 316° |
| 2026-05-04 01:43 | 26.49416 | 45.09922 | 30000 ft | 496 kts | 316° |
| 2026-05-04 01:43 | 26.54397 | 45.04677 | 30000 ft | 496 kts | 316° |
| 2026-05-04 01:44 | 26.59443 | 44.99357 | 30000 ft | 496 kts | 316° |
| 2026-05-04 01:44 | 26.64458 | 44.94066 | 30000 ft | 496 kts | 316° |
| 2026-05-04 01:45 | 26.69434 | 44.88811 | 30000 ft | 496 kts | 316° |
| 2026-05-04 01:45 | 26.76951 | 44.80858 | 30000 ft | 496 kts | 316° |
| 2026-05-04 01:46 | 26.81952 | 44.75551 | 30000 ft | 496 kts | 316° |
| 2026-05-04 01:46 | 26.86953 | 44.70233 | 30000 ft | 496 kts | 316° |
| 2026-05-04 01:47 | 26.91954 | 44.64909 | 30000 ft | 496 kts | 316° |
| 2026-05-04 01:47 | 26.96949 | 44.59586 | 30000 ft | 496 kts | 316° |
| 2026-05-04 01:48 | 27.01945 | 44.54254 | 30001 ft | 496 kts | 316° |
| 2026-05-04 01:48 | 27.06937 | 44.48910 | 30000 ft | 496 kts | 316° |
| 2026-05-04 01:49 | 27.11929 | 44.43560 | 30000 ft | 496 kts | 316° |
| 2026-05-04 01:49 | 27.16919 | 44.38205 | 30000 ft | 496 kts | 316° |
| 2026-05-04 01:50 | 27.21907 | 44.32855 | 30000 ft | 496 kts | 316° |
| 2026-05-04 01:50 | 27.26903 | 44.27495 | 30000 ft | 496 kts | 316° |
| 2026-05-04 01:51 | 27.31896 | 44.22128 | 30000 ft | 496 kts | 316° |
| 2026-05-04 01:51 | 27.36885 | 44.16759 | 30000 ft | 497 kts | 316° |
| 2026-05-04 01:52 | 27.41876 | 44.11380 | 30000 ft | 497 kts | 316° |
| 2026-05-04 01:52 | 27.46861 | 44.06001 | 30000 ft | 497 kts | 316° |
| 2026-05-04 01:53 | 27.51813 | 44.00649 | 30000 ft | 497 kts | 316° |
| 2026-05-04 01:53 | 27.56798 | 43.95255 | 30000 ft | 497 kts | 316° |
| 2026-05-04 01:54 | 27.61781 | 43.89856 | 30000 ft | 497 kts | 316° |
| 2026-05-04 01:54 | 27.66760 | 43.84455 | 30000 ft | 497 kts | 316° |
| 2026-05-04 01:55 | 27.71742 | 43.79043 | 30000 ft | 497 kts | 316° |
| 2026-05-04 01:55 | 27.76718 | 43.73630 | 30000 ft | 497 kts | 316° |
| 2026-05-04 01:56 | 27.81692 | 43.68212 | 30000 ft | 497 kts | 315° |
| 2026-05-04 01:56 | 27.86589 | 43.62637 | 30000 ft | 496 kts | 312° |
| 2026-05-04 01:57 | 27.91281 | 43.56975 | 30000 ft | 497 kts | 313° |
| 2026-05-04 01:57 | 27.96014 | 43.51286 | 30000 ft | 497 kts | 313° |
| 2026-05-04 01:58 | 28.00739 | 43.45587 | 30000 ft | 497 kts | 313° |
| 2026-05-04 01:58 | 28.05463 | 43.39877 | 30000 ft | 497 kts | 313° |
| 2026-05-04 01:59 | 28.10182 | 43.34165 | 30000 ft | 497 kts | 313° |
| 2026-05-04 01:59 | 28.14898 | 43.28450 | 30000 ft | 497 kts | 313° |
| 2026-05-04 02:00 | 28.19613 | 43.22727 | 30000 ft | 497 kts | 313° |
| 2026-05-04 02:00 | 28.24322 | 43.17004 | 30000 ft | 497 kts | 313° |
| 2026-05-04 02:01 | 28.29036 | 43.11266 | 30000 ft | 497 kts | 313° |
| 2026-05-04 02:01 | 28.33746 | 43.05527 | 30000 ft | 497 kts | 313° |
| 2026-05-04 02:02 | 28.38453 | 42.99781 | 30000 ft | 497 kts | 313° |
| 2026-05-04 02:02 | 28.43157 | 42.94032 | 30000 ft | 497 kts | 313° |
| 2026-05-04 02:03 | 28.47859 | 42.88277 | 30000 ft | 497 kts | 312° |
| 2026-05-04 02:03 | 28.52558 | 42.82518 | 30000 ft | 497 kts | 312° |
| 2026-05-04 02:04 | 28.57258 | 42.76750 | 30000 ft | 497 kts | 312° |
| 2026-05-04 02:04 | 28.61952 | 42.70981 | 30000 ft | 497 kts | 312° |
| 2026-05-04 02:05 | 28.66641 | 42.65210 | 30000 ft | 497 kts | 312° |
| 2026-05-04 02:05 | 28.71332 | 42.59425 | 30000 ft | 497 kts | 312° |
| 2026-05-04 02:06 | 28.76021 | 42.53636 | 30000 ft | 497 kts | 312° |
| 2026-05-04 02:06 | 28.80704 | 42.47846 | 30000 ft | 497 kts | 312° |
| 2026-05-04 02:07 | 28.85384 | 42.42051 | 30000 ft | 497 kts | 312° |
| 2026-05-04 02:07 | 28.90032 | 42.36288 | 30000 ft | 497 kts | 312° |
| 2026-05-04 02:08 | 28.94712 | 42.30476 | 30000 ft | 497 kts | 312° |
| 2026-05-04 02:08 | 28.98627 | 42.25608 | 30000 ft | 497 kts | 312° |
| 2026-05-04 02:09 | 29.04059 | 42.18844 | 30000 ft | 497 kts | 312° |
| 2026-05-04 02:09 | 29.08729 | 42.13020 | 30000 ft | 497 kts | 312° |
| 2026-05-04 02:10 | 29.12642 | 42.08133 | 30000 ft | 497 kts | 312° |
| 2026-05-04 02:10 | 29.17308 | 42.02298 | 30000 ft | 497 kts | 312° |
| 2026-05-04 02:11 | 29.21974 | 41.96454 | 30000 ft | 497 kts | 312° |
| 2026-05-04 02:11 | 29.26606 | 41.90645 | 30000 ft | 497 kts | 312° |
| 2026-05-04 02:12 | 29.31265 | 41.84793 | 30000 ft | 497 kts | 312° |
| 2026-05-04 02:12 | 29.35927 | 41.78929 | 30000 ft | 497 kts | 312° |
| 2026-05-04 02:13 | 29.40585 | 41.73061 | 30000 ft | 497 kts | 312° |
| 2026-05-04 02:13 | 29.45240 | 41.67188 | 30000 ft | 498 kts | 312° |
| 2026-05-04 02:14 | 29.49895 | 41.61306 | 30000 ft | 498 kts | 312° |
| 2026-05-04 02:14 | 29.54544 | 41.55423 | 30000 ft | 498 kts | 312° |
| 2026-05-04 02:15 | 29.59198 | 41.49527 | 30000 ft | 498 kts | 311° |
| 2026-05-04 02:15 | 29.63843 | 41.43631 | 30000 ft | 498 kts | 311° |
| 2026-05-04 02:16 | 29.68489 | 41.37727 | 30000 ft | 498 kts | 311° |
| 2026-05-04 02:16 | 29.73142 | 41.31829 | 29999 ft | 498 kts | 313° |
| 2026-05-04 02:17 | 29.78235 | 41.26426 | 30000 ft | 498 kts | 318° |
| 2026-05-04 02:17 | 29.83401 | 41.21125 | 30000 ft | 498 kts | 318° |
| 2026-05-04 02:18 | 29.88565 | 41.15809 | 30000 ft | 498 kts | 318° |
| 2026-05-04 02:18 | 29.93742 | 41.10480 | 30000 ft | 498 kts | 318° |
| 2026-05-04 02:19 | 29.98910 | 41.05154 | 30000 ft | 498 kts | 318° |
| 2026-05-04 02:19 | 30.04072 | 40.99827 | 30000 ft | 498 kts | 318° |
| 2026-05-04 02:20 | 30.09238 | 40.94488 | 30000 ft | 498 kts | 317° |
| 2026-05-04 02:20 | 30.14399 | 40.89146 | 30000 ft | 498 kts | 317° |
| 2026-05-04 02:21 | 30.19556 | 40.83801 | 30000 ft | 498 kts | 317° |
| 2026-05-04 02:21 | 30.24713 | 40.78447 | 30000 ft | 498 kts | 317° |
| 2026-05-04 02:22 | 30.29868 | 40.73088 | 30000 ft | 498 kts | 317° |
| 2026-05-04 02:22 | 30.35020 | 40.67725 | 30000 ft | 498 kts | 317° |
| 2026-05-04 02:23 | 30.40171 | 40.62360 | 30000 ft | 498 kts | 318° |
| 2026-05-04 02:23 | 30.45367 | 40.57047 | 30000 ft | 498 kts | 318° |
| 2026-05-04 02:24 | 30.50532 | 40.51771 | 30000 ft | 498 kts | 318° |
| 2026-05-04 02:24 | 30.55723 | 40.46448 | 30000 ft | 498 kts | 318° |
| 2026-05-04 02:25 | 30.60913 | 40.41114 | 30000 ft | 498 kts | 318° |
| 2026-05-04 02:25 | 30.66100 | 40.35775 | 30000 ft | 498 kts | 318° |
| 2026-05-04 02:26 | 30.71282 | 40.30431 | 30000 ft | 498 kts | 318° |
| 2026-05-04 02:26 | 30.76464 | 40.25082 | 30000 ft | 498 kts | 318° |
| 2026-05-04 02:27 | 30.81646 | 40.19724 | 30000 ft | 498 kts | 318° |
| 2026-05-04 02:27 | 30.86820 | 40.14366 | 30000 ft | 498 kts | 318° |
| 2026-05-04 02:28 | 30.91995 | 40.08999 | 30000 ft | 498 kts | 318° |
| 2026-05-04 02:28 | 30.97172 | 40.03621 | 30000 ft | 498 kts | 318° |
| 2026-05-04 02:29 | 31.02339 | 39.98246 | 30000 ft | 498 kts | 318° |
| 2026-05-04 02:29 | 31.07510 | 39.92858 | 30000 ft | 498 kts | 318° |
| 2026-05-04 02:30 | 31.12676 | 39.87468 | 30000 ft | 498 kts | 318° |
| 2026-05-04 02:30 | 31.17840 | 39.82072 | 30000 ft | 498 kts | 317° |
| 2026-05-04 02:31 | 31.22999 | 39.76673 | 30000 ft | 498 kts | 317° |
| 2026-05-04 02:31 | 31.28154 | 39.71268 | 30000 ft | 498 kts | 317° |
| 2026-05-04 02:32 | 31.33313 | 39.65853 | 30000 ft | 498 kts | 317° |
| 2026-05-04 02:32 | 31.38468 | 39.60433 | 30000 ft | 498 kts | 317° |
| 2026-05-04 02:33 | 31.43621 | 39.55008 | 30000 ft | 498 kts | 317° |
| 2026-05-04 02:33 | 31.48771 | 39.49575 | 30000 ft | 498 kts | 317° |
| 2026-05-04 02:34 | 31.53917 | 39.44138 | 30000 ft | 498 kts | 317° |
| 2026-05-04 02:34 | 31.59065 | 39.38690 | 30000 ft | 498 kts | 317° |
| 2026-05-04 02:35 | 31.64212 | 39.33236 | 30000 ft | 498 kts | 317° |
| 2026-05-04 02:35 | 31.69346 | 39.27789 | 30000 ft | 498 kts | 317° |
| 2026-05-04 02:36 | 31.74455 | 39.22357 | 30000 ft | 498 kts | 317° |
| 2026-05-04 02:36 | 31.79867 | 39.17192 | 30000 ft | 499 kts | 325° |
| 2026-05-04 02:37 | 31.85785 | 39.13048 | 30000 ft | 500 kts | 333° |
| 2026-05-04 02:37 | 31.92054 | 39.09361 | 30000 ft | 500 kts | 333° |
| 2026-05-04 02:38 | 31.98215 | 39.05696 | 30000 ft | 500 kts | 333° |
| 2026-05-04 02:38 | 32.04438 | 39.02009 | 30000 ft | 500 kts | 333° |
| 2026-05-04 02:39 | 32.10666 | 38.98338 | 30000 ft | 501 kts | 333° |
| 2026-05-04 02:39 | 32.16900 | 38.94662 | 30000 ft | 501 kts | 333° |
| 2026-05-04 02:40 | 32.23132 | 38.90978 | 30000 ft | 501 kts | 333° |
| 2026-05-04 02:40 | 32.29367 | 38.87285 | 30000 ft | 501 kts | 333° |
| 2026-05-04 02:41 | 32.35599 | 38.83590 | 30000 ft | 501 kts | 333° |
| 2026-05-04 02:41 | 32.41834 | 38.79886 | 30000 ft | 501 kts | 333° |
| 2026-05-04 02:42 | 32.48062 | 38.76181 | 30000 ft | 501 kts | 333° |
| 2026-05-04 02:42 | 32.54296 | 38.72466 | 30000 ft | 502 kts | 333° |
| 2026-05-04 02:43 | 32.60532 | 38.68745 | 30000 ft | 502 kts | 333° |
| 2026-05-04 02:43 | 32.66761 | 38.65024 | 30000 ft | 502 kts | 333° |
| 2026-05-04 02:44 | 32.73007 | 38.61288 | 30000 ft | 502 kts | 333° |
| 2026-05-04 02:44 | 32.79239 | 38.57555 | 30000 ft | 502 kts | 333° |
| 2026-05-04 02:45 | 32.85470 | 38.53815 | 30000 ft | 502 kts | 333° |
| 2026-05-04 02:45 | 32.91686 | 38.50079 | 30000 ft | 502 kts | 333° |
| 2026-05-04 02:46 | 32.97920 | 38.46326 | 30000 ft | 502 kts | 333° |
| 2026-05-04 02:46 | 33.04157 | 38.42564 | 30000 ft | 502 kts | 333° |
| 2026-05-04 02:47 | 33.10391 | 38.38796 | 30000 ft | 502 kts | 333° |
| 2026-05-04 02:47 | 33.16619 | 38.35029 | 30000 ft | 502 kts | 333° |
| 2026-05-04 02:48 | 33.22849 | 38.31262 | 30000 ft | 502 kts | 333° |
| 2026-05-04 02:48 | 33.29073 | 38.27469 | 30000 ft | 502 kts | 333° |
| 2026-05-04 02:49 | 33.35286 | 38.23672 | 30000 ft | 502 kts | 333° |
| 2026-05-04 02:49 | 33.41470 | 38.19889 | 29474 ft | 498 kts | 333° |
| 2026-05-04 02:50 | 33.44560 | 38.17997 | 28464 ft | 500 kts | 333° |
| 2026-05-04 02:50 | 33.47677 | 38.16091 | 27413 ft | 501 kts | 333° |
| 2026-05-04 02:50 | 33.50774 | 38.14211 | 26614 ft | 495 kts | 333° |
| 2026-05-04 02:50 | 33.53817 | 38.12367 | 26158 ft | 486 kts | 333° |
| 2026-05-04 02:51 | 33.56841 | 38.10531 | 26013 ft | 488 kts | 333° |
| 2026-05-04 02:51 | 33.59877 | 38.08686 | 25998 ft | 490 kts | 333° |
| 2026-05-04 02:51 | 33.62920 | 38.06834 | 26000 ft | 491 kts | 333° |
| 2026-05-04 02:51 | 33.65965 | 38.04980 | 26000 ft | 491 kts | 333° |
| 2026-05-04 02:52 | 33.68994 | 38.03133 | 26000 ft | 491 kts | 333° |
| 2026-05-04 02:52 | 33.71020 | 38.01896 | 26000 ft | 491 kts | 333° |
| 2026-05-04 02:52 | 33.75095 | 37.99408 | 26000 ft | 490 kts | 333° |
| 2026-05-04 02:52 | 33.77108 | 37.98177 | 26000 ft | 490 kts | 333° |
| 2026-05-04 02:53 | 33.81180 | 37.95687 | 26080 ft | 491 kts | 333° |
| 2026-05-04 02:53 | 33.83180 | 37.94423 | 26108 ft | 491 kts | 329° |
| 2026-05-04 02:53 | 33.85974 | 37.92068 | 26158 ft | 491 kts | 319° |
| 2026-05-04 02:53 | 33.89103 | 37.88159 | 26226 ft | 491 kts | 307° |
| 2026-05-04 02:54 | 33.90997 | 37.84742 | 26269 ft | 491 kts | 301° |
| 2026-05-04 02:54 | 33.92803 | 37.81258 | 26303 ft | 491 kts | 302° |
| 2026-05-04 02:54 | 33.94631 | 37.77781 | 26346 ft | 492 kts | 302° |
| 2026-05-04 02:54 | 33.95867 | 37.75430 | 26369 ft | 492 kts | 302° |
| 2026-05-04 02:55 | 33.99521 | 37.68461 | 26458 ft | 492 kts | 302° |
| 2026-05-04 02:55 | 34.01346 | 37.64966 | 26498 ft | 493 kts | 302° |
| 2026-05-04 02:55 | 34.03170 | 37.61465 | 26532 ft | 493 kts | 302° |
| 2026-05-04 02:56 | 34.04992 | 37.57966 | 26566 ft | 493 kts | 302° |
| 2026-05-04 02:56 | 34.06813 | 37.54463 | 26606 ft | 493 kts | 302° |
| 2026-05-04 02:56 | 34.08634 | 37.50955 | 26642 ft | 494 kts | 302° |
| 2026-05-04 02:56 | 34.10433 | 37.47487 | 26675 ft | 494 kts | 302° |
| 2026-05-04 02:57 | 34.12255 | 37.43979 | 26709 ft | 494 kts | 302° |
| 2026-05-04 02:57 | 34.14101 | 37.40419 | 26744 ft | 494 kts | 302° |
| 2026-05-04 02:57 | 34.15897 | 37.36947 | 26777 ft | 494 kts | 301° |
| 2026-05-04 02:57 | 34.17712 | 37.33437 | 26810 ft | 494 kts | 302° |
| 2026-05-04 02:58 | 34.19407 | 37.29829 | 26835 ft | 494 kts | 295° |
| 2026-05-04 02:58 | 34.20691 | 37.25983 | 26873 ft | 494 kts | 288° |
| 2026-05-04 02:58 | 34.21556 | 37.21975 | 26908 ft | 494 kts | 280° |
| 2026-05-04 02:58 | 34.22003 | 37.17865 | 26945 ft | 493 kts | 274° |
| 2026-05-04 02:59 | 34.22305 | 37.13736 | 26993 ft | 493 kts | 275° |
| 2026-05-04 02:59 | 34.22633 | 37.09611 | 27001 ft | 494 kts | 275° |
| 2026-05-04 02:59 | 34.22966 | 37.05491 | 27000 ft | 495 kts | 275° |
| 2026-05-04 02:59 | 34.23296 | 37.01339 | 27000 ft | 495 kts | 275° |
| 2026-05-04 03:00 | 34.23621 | 36.97188 | 27000 ft | 496 kts | 275° |
| 2026-05-04 03:00 | 34.23943 | 36.93040 | 27000 ft | 497 kts | 275° |
| 2026-05-04 03:00 | 34.24262 | 36.88888 | 27000 ft | 497 kts | 275° |
| 2026-05-04 03:00 | 34.24580 | 36.84729 | 27000 ft | 497 kts | 275° |
| 2026-05-04 03:01 | 34.24895 | 36.80579 | 27000 ft | 497 kts | 275° |
| 2026-05-04 03:01 | 34.25210 | 36.76419 | 27000 ft | 497 kts | 275° |
| 2026-05-04 03:01 | 34.25525 | 36.72280 | 27000 ft | 497 kts | 275° |
| 2026-05-04 03:01 | 34.25840 | 36.68088 | 27000 ft | 497 kts | 275° |
| 2026-05-04 03:02 | 34.26149 | 36.63932 | 27000 ft | 497 kts | 275° |
| 2026-05-04 03:02 | 34.26458 | 36.59766 | 27000 ft | 497 kts | 275° |
| 2026-05-04 03:02 | 34.26747 | 36.55606 | 27000 ft | 496 kts | 273° |
| 2026-05-04 03:02 | 34.26919 | 36.51435 | 27000 ft | 496 kts | 272° |
| 2026-05-04 03:03 | 34.27047 | 36.47267 | 27000 ft | 497 kts | 272° |
| 2026-05-04 03:03 | 34.27176 | 36.43102 | 27000 ft | 497 kts | 272° |
| 2026-05-04 03:03 | 34.27313 | 36.38997 | 27000 ft | 497 kts | 272° |
| 2026-05-04 03:03 | 34.27462 | 36.34801 | 27000 ft | 497 kts | 272° |
| 2026-05-04 03:04 | 34.27614 | 36.30625 | 27000 ft | 497 kts | 272° |
| 2026-05-04 03:04 | 34.27766 | 36.26452 | 27000 ft | 497 kts | 272° |
| 2026-05-04 03:04 | 34.27918 | 36.22283 | 27000 ft | 497 kts | 272° |
| 2026-05-04 03:04 | 34.28068 | 36.18112 | 27000 ft | 497 kts | 272° |
| 2026-05-04 03:05 | 34.28217 | 36.13935 | 27000 ft | 497 kts | 272° |
| 2026-05-04 03:05 | 34.28365 | 36.09764 | 27000 ft | 497 kts | 272° |
| 2026-05-04 03:05 | 34.28511 | 36.05593 | 27000 ft | 497 kts | 272° |
| 2026-05-04 03:05 | 34.28655 | 36.01414 | 27000 ft | 497 kts | 272° |
| 2026-05-04 03:06 | 34.28807 | 35.97242 | 27000 ft | 497 kts | 272° |
| 2026-05-04 03:06 | 34.28995 | 35.93061 | 27000 ft | 497 kts | 273° |
| 2026-05-04 03:06 | 34.29195 | 35.88888 | 27000 ft | 498 kts | 273° |
| 2026-05-04 03:06 | 34.29392 | 35.84715 | 27000 ft | 497 kts | 273° |
| 2026-05-04 03:07 | 34.29584 | 35.80532 | 27000 ft | 497 kts | 273° |
| 2026-05-04 03:07 | 34.29773 | 35.76362 | 27000 ft | 497 kts | 273° |
| 2026-05-04 03:07 | 34.30061 | 35.72195 | 27000 ft | 497 kts | 277° |
| 2026-05-04 03:07 | 34.30710 | 35.68089 | 27000 ft | 498 kts | 284° |
| 2026-05-04 03:08 | 34.31708 | 35.64083 | 27000 ft | 497 kts | 289° |
| 2026-05-04 03:08 | 34.32849 | 35.60141 | 27000 ft | 497 kts | 289° |
| 2026-05-04 03:08 | 34.33968 | 35.56183 | 26967 ft | 493 kts | 288° |
| 2026-05-04 03:08 | 34.35053 | 35.52317 | 26743 ft | 477 kts | 288° |
| 2026-05-04 03:09 | 34.36101 | 35.48576 | 26494 ft | 463 kts | 288° |
| 2026-05-04 03:09 | 34.37125 | 35.44920 | 26246 ft | 457 kts | 288° |
| 2026-05-04 03:09 | 34.38147 | 35.41274 | 25998 ft | 458 kts | 288° |
| 2026-05-04 03:09 | 34.39168 | 35.37624 | 25748 ft | 457 kts | 288° |
| 2026-05-04 03:10 | 34.40188 | 35.33981 | 25498 ft | 456 kts | 288° |
| 2026-05-04 03:10 | 34.41036 | 35.30947 | 25290 ft | 455 kts | 288° |
| 2026-05-04 03:10 | 34.42045 | 35.27332 | 25031 ft | 451 kts | 288° |
| 2026-05-04 03:10 | 34.43048 | 35.23735 | 24435 ft | 449 kts | 288° |
| 2026-05-04 03:11 | 34.44043 | 35.20162 | 23794 ft | 446 kts | 288° |
| 2026-05-04 03:11 | 34.45027 | 35.16625 | 23148 ft | 440 kts | 288° |
| 2026-05-04 03:11 | 34.45996 | 35.13137 | 22515 ft | 434 kts | 288° |
| 2026-05-04 03:11 | 34.46952 | 35.09690 | 21867 ft | 429 kts | 288° |
| 2026-05-04 03:12 | 34.47893 | 35.06294 | 21232 ft | 423 kts | 288° |
| 2026-05-04 03:12 | 34.48825 | 35.02933 | 20590 ft | 418 kts | 288° |
| 2026-05-04 03:12 | 34.49757 | 34.99612 | 19953 ft | 413 kts | 288° |
| 2026-05-04 03:12 | 34.50681 | 34.96333 | 19318 ft | 409 kts | 288° |
| 2026-05-04 03:13 | 34.51594 | 34.93090 | 18679 ft | 404 kts | 288° |
| 2026-05-04 03:13 | 34.52495 | 34.89879 | 18049 ft | 400 kts | 288° |
| 2026-05-04 03:13 | 34.53384 | 34.86707 | 17417 ft | 396 kts | 288° |
| 2026-05-04 03:13 | 34.54263 | 34.83564 | 16792 ft | 391 kts | 288° |
| 2026-05-04 03:14 | 34.55130 | 34.80456 | 16174 ft | 387 kts | 288° |
| 2026-05-04 03:14 | 34.55989 | 34.77378 | 15564 ft | 382 kts | 288° |
| 2026-05-04 03:14 | 34.56835 | 34.74342 | 14888 ft | 379 kts | 288° |
| 2026-05-04 03:14 | 34.57669 | 34.71341 | 14122 ft | 380 kts | 288° |
| 2026-05-04 03:15 | 34.58517 | 34.68293 | 13676 ft | 371 kts | 288° |
| 2026-05-04 03:15 | 34.59323 | 34.65391 | 13206 ft | 366 kts | 288° |
| 2026-05-04 03:15 | 34.60139 | 34.62447 | 12628 ft | 361 kts | 288° |
| 2026-05-04 03:15 | 34.60935 | 34.59575 | 12069 ft | 357 kts | 288° |
| 2026-05-04 03:16 | 34.61720 | 34.56741 | 11518 ft | 352 kts | 288° |
| 2026-05-04 03:16 | 34.62494 | 34.53939 | 10974 ft | 348 kts | 288° |
| 2026-05-04 03:16 | 34.63260 | 34.51169 | 10441 ft | 344 kts | 288° |
| 2026-05-04 03:16 | 34.64004 | 34.48473 | 10245 ft | 330 kts | 288° |
| 2026-05-04 03:17 | 34.64717 | 34.45889 | 10110 ft | 315 kts | 288° |
| 2026-05-04 03:17 | 34.65398 | 34.43417 | 9988 ft | 302 kts | 288° |
| 2026-05-04 03:17 | 34.66055 | 34.41028 | 9861 ft | 297 kts | 288° |
| 2026-05-04 03:17 | 34.66698 | 34.38687 | 9734 ft | 296 kts | 288° |
| 2026-05-04 03:18 | 34.67352 | 34.36307 | 9426 ft | 299 kts | 288° |
| 2026-05-04 03:18 | 34.68009 | 34.33911 | 9084 ft | 297 kts | 288° |
| 2026-05-04 03:18 | 34.68657 | 34.31551 | 8742 ft | 292 kts | 288° |
| 2026-05-04 03:18 | 34.69294 | 34.29227 | 8407 ft | 288 kts | 288° |
| 2026-05-04 03:19 | 34.69923 | 34.26931 | 8076 ft | 284 kts | 288° |
| 2026-05-04 03:19 | 34.70540 | 34.24675 | 7750 ft | 280 kts | 288° |
| 2026-05-04 03:19 | 34.71152 | 34.22435 | 7423 ft | 277 kts | 288° |
| 2026-05-04 03:19 | 34.71755 | 34.20226 | 7099 ft | 274 kts | 288° |
| 2026-05-04 03:20 | 34.72352 | 34.18039 | 6778 ft | 271 kts | 288° |
| 2026-05-04 03:20 | 34.72941 | 34.15881 | 6461 ft | 268 kts | 288° |
| 2026-05-04 03:20 | 34.73524 | 34.13742 | 6147 ft | 266 kts | 288° |
| 2026-05-04 03:20 | 34.74106 | 34.11606 | 5826 ft | 264 kts | 288° |
| 2026-05-04 03:21 | 34.74679 | 34.09498 | 5508 ft | 262 kts | 288° |
| 2026-05-04 03:21 | 34.75246 | 34.07402 | 5194 ft | 260 kts | 288° |
| 2026-05-04 03:21 | 34.75805 | 34.05329 | 4883 ft | 258 kts | 287° |
| 2026-05-04 03:21 | 34.76365 | 34.03250 | 4571 ft | 257 kts | 287° |
| 2026-05-04 03:22 | 34.76918 | 34.01195 | 4251 ft | 255 kts | 287° |
| 2026-05-04 03:22 | 34.77470 | 33.99147 | 3935 ft | 254 kts | 287° |
| 2026-05-04 03:22 | 34.78018 | 33.97108 | 3619 ft | 253 kts | 287° |
| 2026-05-04 03:22 | 34.78564 | 33.95080 | 3316 ft | 252 kts | 287° |
| 2026-05-04 03:23 | 34.79116 | 33.93026 | 3205 ft | 260 kts | 287° |
| 2026-05-04 03:23 | 34.79673 | 33.90945 | 3159 ft | 257 kts | 287° |
| 2026-05-04 03:23 | 34.80221 | 33.88889 | 3118 ft | 251 kts | 287° |
| 2026-05-04 03:23 | 34.80748 | 33.86910 | 3028 ft | 241 kts | 287° |
| 2026-05-04 03:24 | 34.81254 | 33.85012 | 2818 ft | 234 kts | 287° |
| 2026-05-04 03:24 | 34.81760 | 33.83116 | 2376 ft | 235 kts | 289° |
| 2026-05-04 03:24 | 34.82653 | 33.81474 | 2112 ft | 233 kts | 320° |
| 2026-05-04 03:24 | 34.84065 | 33.80645 | 2024 ft | 223 kts | 348° |
| 2026-05-04 03:25 | 34.85572 | 33.80640 | 1945 ft | 213 kts | 8° |
| 2026-05-04 03:25 | 34.87000 | 33.80815 | 1880 ft | 196 kts | 1° |
| 2026-05-04 03:25 | 34.88281 | 33.80787 | 1690 ft | 180 kts | 355° |
| 2026-05-04 03:25 | 34.89557 | 33.80609 | 1672 ft | 186 kts | 350° |
| 2026-05-04 03:26 | 34.90833 | 33.80297 | 1671 ft | 188 kts | 345° |
| 2026-05-04 03:26 | 34.92090 | 33.79850 | 1671 ft | 188 kts | 340° |
| 2026-05-04 03:26 | 34.93310 | 33.79273 | 1671 ft | 188 kts | 335° |
| 2026-05-04 03:26 | 34.94480 | 33.78573 | 1669 ft | 184 kts | 330° |
| 2026-05-04 03:27 | 34.95521 | 33.77785 | 1660 ft | 171 kts | 317° |
| 2026-05-04 03:27 | 34.95964 | 33.76527 | 1686 ft | 165 kts | 268° |
| 2026-05-04 03:27 | 34.95787 | 33.75148 | 1670 ft | 164 kts | 256° |
| 2026-05-04 03:27 | 34.95492 | 33.73806 | 1673 ft | 164 kts | 253° |
| 2026-05-04 03:28 | 34.95148 | 33.72494 | 1669 ft | 163 kts | 246° |
| 2026-05-04 03:28 | 34.94571 | 33.71314 | 1665 ft | 163 kts | 232° |
| 2026-05-04 03:28 | 34.93823 | 33.70259 | 1480 ft | 163 kts | 226° |
| 2026-05-04 03:28 | 34.93053 | 33.69307 | 1278 ft | 150 kts | 225° |
| 2026-05-04 03:29 | 34.92345 | 33.68443 | 1100 ft | 140 kts | 225° |
| 2026-05-04 03:29 | 34.91656 | 33.67613 | 892 ft | 139 kts | 224° |
| 2026-05-04 03:29 | 34.90952 | 33.66819 | 720 ft | 138 kts | 223° |
| 2026-05-04 03:29 | 34.90277 | 33.65997 | 575 ft | 137 kts | 227° |
| 2026-05-04 03:30 | 34.89629 | 33.65146 | 432 ft | 137 kts | 225° |
| 2026-05-04 03:30 | 34.88960 | 33.64333 | 262 ft | 137 kts | 225° |
| 2026-05-04 03:30 | 34.88287 | 33.63511 | 70 ft | 136 kts | 225° |
| 2026-05-04 03:30 | 34.87673 | 33.62757 | 25 ft | 105 kts | 225° |
| 2026-05-04 03:31 | 34.87245 | 33.62232 | 23 ft | 72 kts | 224° |
| 2026-05-04 03:31 | 34.86943 | 33.61867 | 26 ft | 52 kts | 225° |
| 2026-05-04 03:31 | 34.86740 | 33.61619 | 22 ft | 36 kts | 225° |
| 2026-05-04 03:31 | 34.86635 | 33.61489 | 21 ft | 17 kts | 225° |
| 2026-05-04 03:32 | 34.86554 | 33.61387 | 24 ft | 16 kts | 231° |
| 2026-05-04 03:32 | 34.86511 | 33.61260 | 25 ft | 18 kts | 257° |
| 2026-05-04 03:32 | 34.86480 | 33.61107 | 27 ft | 19 kts | 255° |
| 2026-05-04 03:32 | 34.86444 | 33.60949 | 29 ft | 20 kts | 254° |
| 2026-05-04 03:33 | 34.86427 | 33.60842 | 28 ft | 8 kts | 290° |
| 2026-05-04 03:33 | 34.86468 | 33.60797 | 29 ft | 8 kts | 358° |
| 2026-05-04 03:33 | 34.86523 | 33.60836 | 30 ft | 12 kts | 49° |
| 2026-05-04 03:33 | 34.86591 | 33.60933 | 27 ft | 18 kts | 48° |
| 2026-05-04 03:34 | 34.86664 | 33.61012 | 26 ft | 11 kts | 11° |
| 2026-05-04 03:34 | 34.86717 | 33.60995 | 25 ft | 2 kts | 351° |
| 2026-05-04 03:34 | 34.86745 | 33.60998 | 25 ft | 2 kts | 17° |
| 2026-05-04 03:34 | 34.86773 | 33.61014 | 25 ft | 3 kts | 40° |
| 2026-05-04 03:35 | 34.86788 | 33.61035 | 25 ft | 4 kts | 51° |
| 2026-05-04 03:35 | 34.86791 | 33.61041 | 25 ft | 0 kts | 50° |
| 2026-05-04 03:35 | 34.86792 | 33.61041 | 25 ft | 0 kts | 50° |
| 2026-05-04 03:36 | 34.86791 | 33.61041 | 25 ft | 0 kts | 49° |